Wetterdaten: Woche 14.08.17 - 20.08.17 (KW33)
Datum Zeit Temp. Aussen Temp. o. S. +5cm Feuchte Auss BlattFeu 1 Luftdruck Regen Sonnenschein Regendauer Solar Windben Empfang
14.08.2017 00:00 14,4 C 12,4 C 11,8 C 89 % 2 lf 1020,8 hPa 0,0 l/m 0,00 h 0,00 h 4 W/m 0,0 km/h (0 Bft) 98,40 %
14.08.2017 01:00 13,7 C 12,0 C 11,4 C 91 % 4 lf 1020,7 hPa 0,0 l/m 0,00 h 0,00 h 3 W/m 0,0 km/h (0 Bft) 94,66 %
14.08.2017 02:00 13,1 C 11,4 C 10,8 C 92 % 11 lf 1020,6 hPa 0,0 l/m 0,00 h 0,00 h 4 W/m 0,0 km/h (0 Bft) 95,55 %
14.08.2017 03:00 12,5 C 11,1 C 10,4 C 93 % 15 lf 1020,2 hPa 0,0 l/m 0,00 h 0,00 h 4 W/m 0,0 km/h (0 Bft) 97,73 %
14.08.2017 04:00 12,1 C 11,2 C 10,0 C 94 % 15 lf 1019,9 hPa 0,0 l/m 0,00 h 0,00 h 4 W/m 1,1 km/h (0 Bft) 94,89 %
14.08.2017 05:00 11,8 C 10,3 C 9,7 C 95 % 15 lf 1019,7 hPa 0,0 l/m 0,00 h 0,00 h 4 W/m 0,0 km/h (0 Bft) 98,09 %
14.08.2017 06:00 11,4 C 10,1 C 9,4 C 95 % 15 lf 1019,5 hPa 0,0 l/m 0,33 h 0,00 h 29 W/m 0,0 km/h (0 Bft) 95,62 %
14.08.2017 07:00 11,7 C 11,8 C 10,7 C 96 % 15 lf 1019,7 hPa 0,0 l/m 1,00 h 0,00 h 177 W/m 2,0 km/h (1 Bft) 94,91 %
14.08.2017 08:00 13,6 C 15,9 C 12,9 C 98 % 14 lf 1019,8 hPa 0,0 l/m 1,00 h 0,00 h 347 W/m 8,3 km/h (2 Bft) 97,81 %
14.08.2017 09:00 16,2 C 19,9 C 18,0 C 96 % 0 lf 1019,7 hPa 0,0 l/m 1,00 h 0,00 h 501 W/m 13,3 km/h (3 Bft) 97,72 %
14.08.2017 10:00 19,8 C 27,5 C 25,5 C 82 % 0 lf 1019,4 hPa 0,0 l/m 1,00 h 0,00 h 629 W/m 12,8 km/h (3 Bft) 93,31 %
14.08.2017 11:00 23,0 C 30,8 C 27,3 C 72 % 0 lf 1019,1 hPa 0,0 l/m 1,00 h 0,00 h 694 W/m 12,4 km/h (3 Bft) 98,58 %
14.08.2017 12:00 25,0 C 33,2 C 28,0 C 65 % 0 lf 1018,7 hPa 0,0 l/m 0,90 h 0,00 h 685 W/m 12,8 km/h (3 Bft) 97,43 %
14.08.2017 13:00 26,2 C 33,0 C 26,0 C 60 % 0 lf 1018,2 hPa 0,0 l/m 1,00 h 0,00 h 914 W/m 14,8 km/h (3 Bft) 93,52 %
14.08.2017 14:00 26,4 C 31,3 C 28,4 C 58 % 0 lf 1017,5 hPa 0,0 l/m 0,97 h 0,00 h 680 W/m 16,0 km/h (3 Bft) 98,65 %
14.08.2017 15:00 26,3 C 29,4 C 29,2 C 59 % 0 lf 1017,1 hPa 0,0 l/m 0,60 h 0,00 h 476 W/m 11,0 km/h (2 Bft) 96,40 %
14.08.2017 16:00 26,1 C 26,0 C 25,2 C 59 % 0 lf 1016,6 hPa 0,0 l/m 0,17 h 0,00 h 166 W/m 10,1 km/h (2 Bft) 95,40 %
14.08.2017 17:00 25,4 C 27,0 C 24,7 C 62 % 0 lf 1016,0 hPa 0,0 l/m 0,60 h 0,00 h 312 W/m 7,9 km/h (2 Bft) 97,54 %
14.08.2017 18:00 25,9 C 26,5 C 24,5 C 63 % 0 lf 1015,5 hPa 0,0 l/m 0,33 h 0,00 h 172 W/m 4,3 km/h (1 Bft) 97,39 %
14.08.2017 19:00 25,4 C 25,5 C 23,1 C 66 % 0 lf 1015,2 hPa 0,0 l/m 1,00 h 0,00 h 157 W/m 8,8 km/h (2 Bft) 95,61 %
14.08.2017 20:00 24,4 C 23,5 C 22,0 C 70 % 0 lf 1015,1 hPa 0,0 l/m 0,23 h 0,00 h 31 W/m 7,9 km/h (2 Bft) 95,72 %
14.08.2017 21:00 23,1 C 20,4 C 18,2 C 74 % 0 lf 1015,3 hPa 0,0 l/m 0,00 h 0,00 h 5 W/m 2,0 km/h (1 Bft) 97,02 %
14.08.2017 22:00 21,0 C 18,3 C 16,4 C 81 % 0 lf 1015,2 hPa 0,0 l/m 0,00 h 0,00 h 0 W/m 0,1 km/h (0 Bft) 96,94 %
14.08.2017 23:00 19,4 C 17,5 C 15,8 C 86 % 1 lf 1015,1 hPa 0,0 l/m 0,00 h 0,00 h 0 W/m 0,3 km/h (0 Bft) 94,10 %
15.08.2017 00:00 18,3 C 16,9 C 15,0 C 89 % 1 lf 1015,0 hPa 0,0 l/m 0,00 h 0,00 h 0 W/m 3,8 km/h (1 Bft) 97,61 %
15.08.2017 01:00 17,9 C 17,2 C 15,0 C 92 % 2 lf 1014,9 hPa 0,0 l/m 0,00 h 0,00 h 5 W/m 4,6 km/h (1 Bft) 96,75 %
15.08.2017 02:00 17,6 C 17,0 C 15,0 C 94 % 1 lf 1014,6 hPa 0,0 l/m 0,00 h 0,00 h 2 W/m 5,9 km/h (2 Bft) 96,29 %
15.08.2017 03:00 17,2 C 16,3 C 14,4 C 94 % 3 lf 1014,4 hPa 0,0 l/m 0,00 h 0,00 h 2 W/m 5,5 km/h (1 Bft) 95,88 %
15.08.2017 04:00 16,5 C 15,6 C 13,9 C 95 % 5 lf 1014,2 hPa 0,0 l/m 0,00 h 0,00 h 1 W/m 5,2 km/h (1 Bft) 97,06 %
15.08.2017 05:00 16,0 C 15,4 C 13,7 C 95 % 10 lf 1014,1 hPa 0,0 l/m 0,00 h 0,00 h 0 W/m 6,7 km/h (2 Bft) 95,71 %
15.08.2017 06:00 15,8 C 15,4 C 13,8 C 96 % 3 lf 1013,8 hPa 0,0 l/m 0,43 h 0,00 h 34 W/m 5,4 km/h (1 Bft) 97,58 %
15.08.2017 07:00 16,0 C 16,7 C 14,9 C 97 % 1 lf 1013,6 hPa 0,0 l/m 1,00 h 0,00 h 145 W/m 6,7 km/h (2 Bft) 94,38 %
15.08.2017 08:00 17,6 C 20,3 C 17,8 C 97 % 0 lf 1013,2 hPa 0,0 l/m 1,00 h 0,00 h 333 W/m 12,6 km/h (3 Bft) 97,51 %
15.08.2017 09:00 20,1 C 22,2 C 20,9 C 94 % 0 lf 1013,5 hPa 0,0 l/m 0,53 h 0,00 h 333 W/m 9,9 km/h (2 Bft) 98,28 %
15.08.2017 10:00 20,8 C 20,9 C 19,7 C 89 % 0 lf 1015,0 hPa 0,0 l/m 0,00 h 0,17 h 200 W/m 5,3 km/h (1 Bft) 94,00 %
15.08.2017 11:00 20,3 C 18,5 C 17,7 C 90 % 13 lf 1014,5 hPa 1,0 l/m 0,00 h 0,90 h 63 W/m 11,1 km/h (2 Bft) 96,60 %
15.08.2017 12:00 20,1 C 20,6 C 20,2 C 94 % 8 lf 1013,0 hPa 0,2 l/m 0,27 h 0,23 h 297 W/m 6,4 km/h (2 Bft) 98,83 %
15.08.2017 13:00 22,9 C 28,8 C 23,7 C 85 % 0 lf 1012,3 hPa 0,0 l/m 1,00 h 0,00 h 767 W/m 19,5 km/h (3 Bft) 93,84 %
15.08.2017 14:00 25,1 C 26,4 C 25,8 C 68 % 0 lf 1012,7 hPa 0,0 l/m 0,10 h 0,00 h 306 W/m 17,3 km/h (3 Bft) 97,60 %
15.08.2017 15:00 24,5 C 25,6 C 24,8 C 73 % 0 lf 1013,2 hPa 0,0 l/m 0,07 h 0,00 h 246 W/m 14,2 km/h (3 Bft) 96,96 %
15.08.2017 16:00 24,5 C 24,6 C 23,4 C 74 % 0 lf 1013,5 hPa 0,0 l/m 0,00 h 0,00 h 98 W/m 12,1 km/h (2 Bft) 96,25 %
15.08.2017 17:00 23,7 C 23,2 C 21,7 C 77 % 0 lf 1013,6 hPa 0,0 l/m 0,00 h 0,27 h 72 W/m 16,9 km/h (3 Bft) 95,45 %
15.08.2017 18:00 23,4 C 23,9 C 22,8 C 80 % 0 lf 1013,6 hPa 0,0 l/m 0,53 h 0,00 h 181 W/m 14,4 km/h (3 Bft) 97,53 %
15.08.2017 19:00 23,3 C 23,1 C 21,9 C 81 % 0 lf 1014,0 hPa 0,0 l/m 0,00 h 0,00 h 55 W/m 22,0 km/h (4 Bft) 96,91 %
15.08.2017 20:00 22,5 C 21,8 C 20,4 C 83 % 0 lf 1014,5 hPa 0,0 l/m 0,00 h 0,00 h 16 W/m 14,5 km/h (3 Bft) 95,44 %
15.08.2017 21:00 21,6 C 20,7 C 19,0 C 86 % 0 lf 1015,5 hPa 0,0 l/m 0,00 h 0,00 h 7 W/m 8,5 km/h (2 Bft) 96,31 %
15.08.2017 22:00 20,8 C 19,9 C 18,6 C 89 % 0 lf 1016,4 hPa 0,0 l/m 0,00 h 0,00 h 0 W/m 13,4 km/h (3 Bft) 98,79 %
15.08.2017 23:00 19,9 C 19,0 C 17,9 C 90 % 0 lf 1017,0 hPa 0,0 l/m 0,00 h 0,00 h 0 W/m 6,6 km/h (2 Bft) 93,88 %
16.08.2017 00:00 19,3 C 18,7 C 17,6 C 91 % 0 lf 1017,7 hPa 0,0 l/m 0,00 h 0,00 h 0 W/m 9,0 km/h (2 Bft) 96,90 %
16.08.2017 01:00 18,8 C 18,2 C 17,1 C 92 % 0 lf 1018,0 hPa 0,0 l/m 0,00 h 0,00 h 0 W/m 10,6 km/h (2 Bft) 97,36 %
16.08.2017 02:00 18,5 C 17,9 C 16,8 C 93 % 0 lf 1018,2 hPa 0,0 l/m 0,00 h 0,00 h 0 W/m 9,5 km/h (2 Bft) 95,46 %
16.08.2017 03:00 17,9 C 16,3 C 15,2 C 93 % 2 lf 1018,6 hPa 0,0 l/m 0,00 h 0,00 h 0 W/m 5,6 km/h (1 Bft) 94,73 %
16.08.2017 04:00 16,9 C 15,1 C 13,9 C 94 % 12 lf 1018,8 hPa 0,0 l/m 0,00 h 0,00 h 5 W/m 2,0 km/h (1 Bft) 98,51 %
16.08.2017 05:00 16,0 C 14,3 C 13,3 C 94 % 15 lf 1019,1 hPa 0,0 l/m 0,00 h 0,00 h 5 W/m 4,6 km/h (1 Bft) 93,84 %
16.08.2017 06:00 15,4 C 13,9 C 12,8 C 95 % 15 lf 1019,7 hPa 0,0 l/m 0,00 h 0,00 h 14 W/m 1,6 km/h (1 Bft) 98,09 %
16.08.2017 07:00 15,0 C 14,8 C 13,5 C 95 % 15 lf 1020,1 hPa 0,0 l/m 0,87 h 0,00 h 92 W/m 1,8 km/h (1 Bft) 94,78 %
16.08.2017 08:00 16,1 C 17,6 C 15,1 C 97 % 15 lf 1020,5 hPa 0,0 l/m 0,87 h 0,00 h 197 W/m 4,1 km/h (1 Bft) 95,99 %
16.08.2017 09:00 17,1 C 20,2 C 17,7 C 98 % 5 lf 1020,6 hPa 0,0 l/m 0,20 h 0,00 h 171 W/m 3,6 km/h (1 Bft) 97,16 %
16.08.2017 10:00 18,9 C 25,2 C 22,9 C 94 % 0 lf 1020,9 hPa 0,0 l/m 0,87 h 0,00 h 421 W/m 8,0 km/h (2 Bft) 96,35 %
16.08.2017 11:00 21,6 C 28,9 C 25,6 C 81 % 0 lf 1020,8 hPa 0,0 l/m 0,87 h 0,00 h 593 W/m 8,5 km/h (2 Bft) 94,61 %
16.08.2017 12:00 23,9 C 31,6 C 27,4 C 71 % 0 lf 1020,5 hPa 0,0 l/m 1,00 h 0,00 h 760 W/m 8,8 km/h (2 Bft) 99,19 %
16.08.2017 13:00 24,8 C 29,1 C 26,0 C 67 % 0 lf 1020,3 hPa 0,0 l/m 0,53 h 0,00 h 506 W/m 7,8 km/h (2 Bft) 94,97 %
16.08.2017 14:00 24,8 C 28,6 C 27,0 C 65 % 0 lf 1020,1 hPa 0,0 l/m 0,63 h 0,00 h 523 W/m 7,2 km/h (2 Bft) 95,64 %
16.08.2017 15:00 24,7 C 27,1 C 26,6 C 64 % 0 lf 1019,6 hPa 0,0 l/m 0,80 h 0,00 h 361 W/m 5,9 km/h (2 Bft) 97,82 %
16.08.2017 16:00 24,6 C 25,8 C 25,1 C 64 % 0 lf 1019,2 hPa 0,0 l/m 0,03 h 0,00 h 257 W/m 5,3 km/h (1 Bft) 96,31 %
16.08.2017 17:00 24,2 C 25,7 C 24,0 C 64 % 0 lf 1018,8 hPa 0,0 l/m 0,27 h 0,00 h 235 W/m 8,0 km/h (2 Bft) 95,15 %
16.08.2017 18:00 24,3 C 24,8 C 23,7 C 62 % 0 lf 1018,7 hPa 0,0 l/m 0,43 h 0,00 h 179 W/m 8,9 km/h (2 Bft) 97,13 %
16.08.2017 19:00 23,7 C 23,3 C 22,0 C 66 % 0 lf 1018,5 hPa 0,0 l/m 0,00 h 0,00 h 55 W/m 6,4 km/h (2 Bft) 97,88 %
16.08.2017 20:00 22,9 C 22,0 C 20,6 C 68 % 0 lf 1018,5 hPa 0,0 l/m 0,00 h 0,00 h 18 W/m 4,6 km/h (1 Bft) 95,91 %
16.08.2017 21:00 22,1 C 19,9 C 18,7 C 77 % 4 lf 1018,7 hPa 0,2 l/m 0,00 h 0,27 h 5 W/m 1,2 km/h (1 Bft) 96,09 %
16.08.2017 22:00 20,6 C 17,3 C 16,5 C 84 % 15 lf 1018,6 hPa 0,0 l/m 0,00 h 0,00 h 5 W/m 0,1 km/h (0 Bft) 97,97 %
16.08.2017 23:00 19,0 C 16,5 C 15,5 C 89 % 15 lf 1017,9 hPa 0,0 l/m 0,00 h 0,00 h 5 W/m 0,0 km/h (0 Bft) 95,67 %
17.08.2017 00:00 17,7 C 15,4 C 14,7 C 91 % 15 lf 1017,4 hPa 0,0 l/m 0,00 h 0,00 h 5 W/m 1,3 km/h (1 Bft) 94,39 %
17.08.2017 01:00 16,6 C 15,0 C 14,1 C 92 % 15 lf 1017,1 hPa 0,0 l/m 0,00 h 0,00 h 5 W/m 0,0 km/h (0 Bft) 97,74 %
17.08.2017 02:00 16,0 C 14,5 C 13,7 C 93 % 15 lf 1016,7 hPa 0,0 l/m 0,00 h 0,00 h 2 W/m 0,0 km/h (0 Bft) 97,08 %
17.08.2017 03:00 15,4 C 14,2 C 13,3 C 94 % 15 lf 1016,4 hPa 0,0 l/m 0,00 h 0,00 h 5 W/m 1,9 km/h (1 Bft) 93,63 %
17.08.2017 04:00 15,3 C 14,3 C 13,3 C 95 % 15 lf 1016,4 hPa 0,0 l/m 0,00 h 0,00 h 5 W/m 6,2 km/h (2 Bft) 97,85 %
17.08.2017 05:00 15,0 C 14,0 C 12,8 C 96 % 15 lf 1016,1 hPa 0,0 l/m 0,00 h 0,00 h 5 W/m 4,4 km/h (1 Bft) 95,56 %
17.08.2017 06:00 14,9 C 14,2 C 13,3 C 97 % 15 lf 1015,6 hPa 0,0 l/m 0,33 h 0,03 h 22 W/m 6,0 km/h (2 Bft) 97,63 %
17.08.2017 07:00 15,2 C 14,9 C 14,2 C 98 % 15 lf 1015,3 hPa 0,0 l/m 0,43 h 0,00 h 57 W/m 9,8 km/h (2 Bft) 95,45 %
17.08.2017 08:00 15,8 C 16,0 C 15,0 C 98 % 11 lf 1015,1 hPa 0,0 l/m 0,00 h 0,00 h 47 W/m 10,4 km/h (2 Bft) 95,80 %
17.08.2017 09:00 16,8 C 18,2 C 17,3 C 98 % 0 lf 1014,9 hPa 0,0 l/m 0,00 h 0,03 h 148 W/m 11,3 km/h (2 Bft) 96,73 %
17.08.2017 10:00 18,3 C 19,8 C 19,3 C 97 % 0 lf 1014,6 hPa 0,0 l/m 0,00 h 0,47 h 185 W/m 12,1 km/h (2 Bft) 98,08 %
17.08.2017 11:00 20,1 C 22,0 C 22,0 C 90 % 0 lf 1014,2 hPa 0,0 l/m 0,00 h 0,00 h 225 W/m 10,6 km/h (2 Bft) 92,57 %
17.08.2017 12:00 22,0 C 24,0 C 23,7 C 79 % 0 lf 1013,7 hPa 0,0 l/m 0,00 h 0,00 h 277 W/m 15,6 km/h (3 Bft) 98,08 %
17.08.2017 13:00 23,2 C 24,5 C 23,4 C 71 % 1 lf 1013,6 hPa 0,0 l/m 0,00 h 0,27 h 246 W/m 19,6 km/h (3 Bft) 97,79 %
17.08.2017 14:00 22,2 C 22,5 C 21,2 C 71 % 0 lf 1014,0 hPa 0,2 l/m 0,00 h 0,30 h 172 W/m 25,9 km/h (4 Bft) 93,81 %
17.08.2017 15:00 21,5 C 21,8 C 21,1 C 77 % 0 lf 1014,3 hPa 0,0 l/m 0,00 h 0,00 h 145 W/m 22,7 km/h (4 Bft) 97,58 %
17.08.2017 16:00 21,6 C 23,0 C 22,5 C 80 % 0 lf 1014,3 hPa 0,0 l/m 0,33 h 0,00 h 283 W/m 28,0 km/h (4 Bft) 98,08 %
17.08.2017 17:00 21,4 C 21,1 C 20,1 C 81 % 0 lf 1014,3 hPa 0,0 l/m 0,00 h 0,20 h 79 W/m 19,5 km/h (3 Bft) 94,66 %
17.08.2017 18:00 20,8 C 20,7 C 19,8 C 84 % 0 lf 1014,2 hPa 0,0 l/m 0,00 h 0,00 h 61 W/m 17,2 km/h (3 Bft) 97,25 %
17.08.2017 19:00 20,6 C 20,6 C 19,6 C 84 % 0 lf 1014,2 hPa 0,0 l/m 0,00 h 0,00 h 58 W/m 18,4 km/h (3 Bft) 96,50 %
17.08.2017 20:00 20,5 C 19,5 C 18,4 C 86 % 1 lf 1014,1 hPa 0,0 l/m 0,20 h 0,27 h 18 W/m 14,6 km/h (3 Bft) 97,08 %
17.08.2017 21:00 19,9 C 19,1 C 17,9 C 89 % 0 lf 1014,2 hPa 0,0 l/m 0,00 h 0,00 h 4 W/m 13,5 km/h (3 Bft) 95,73 %
17.08.2017 22:00 19,6 C 19,2 C 17,8 C 90 % 0 lf 1014,2 hPa 0,0 l/m 0,00 h 0,00 h 0 W/m 17,6 km/h (3 Bft) 96,79 %
17.08.2017 23:00 19,1 C 18,2 C 16,8 C 92 % 1 lf 1013,8 hPa 0,0 l/m 0,00 h 0,00 h 0 W/m 11,0 km/h (2 Bft) 97,22 %
18.08.2017 00:00 18,6 C 17,7 C 16,5 C 94 % 1 lf 1013,6 hPa 0,0 l/m 0,00 h 0,00 h 0 W/m 8,7 km/h (2 Bft) 94,81 %
18.08.2017 01:00 18,2 C 17,3 C 16,1 C 94 % 1 lf 1013,6 hPa 0,0 l/m 0,00 h 0,00 h 0 W/m 10,6 km/h (2 Bft) 96,12 %
18.08.2017 02:00 17,8 C 17,2 C 15,7 C 95 % 1 lf 1013,2 hPa 0,0 l/m 0,00 h 0,00 h 0 W/m 9,6 km/h (2 Bft) 96,42 %
18.08.2017 03:00 17,5 C 16,8 C 15,1 C 95 % 2 lf 1012,8 hPa 0,0 l/m 0,00 h 0,00 h 0 W/m 7,7 km/h (2 Bft) 98,98 %
18.08.2017 04:00 17,3 C 17,0 C 15,7 C 96 % 2 lf 1012,7 hPa 0,0 l/m 0,00 h 0,03 h 0 W/m 7,3 km/h (2 Bft) 96,17 %
18.08.2017 05:00 17,3 C 16,5 C 15,6 C 96 % 13 lf 1012,8 hPa 0,8 l/m 0,00 h 0,37 h 0 W/m 7,7 km/h (2 Bft) 96,59 %
18.08.2017 06:00 17,1 C 16,1 C 15,2 C 96 % 15 lf 1012,7 hPa 5,8 l/m 0,00 h 1,00 h 5 W/m 7,8 km/h (2 Bft) 96,07 %
18.08.2017 07:00 17,0 C 16,4 C 15,5 C 97 % 15 lf 1012,4 hPa 0,2 l/m 0,00 h 0,37 h 27 W/m 8,5 km/h (2 Bft) 96,53 %
18.08.2017 08:00 17,2 C 16,8 C 16,2 C 98 % 15 lf 1012,4 hPa 0,0 l/m 0,00 h 0,00 h 59 W/m 8,1 km/h (2 Bft) 96,59 %
18.08.2017 09:00 17,4 C 17,2 C 16,9 C 98 % 14 lf 1012,5 hPa 0,0 l/m 0,00 h 0,00 h 88 W/m 9,1 km/h (2 Bft) 95,36 %
18.08.2017 10:00 17,9 C 18,5 C 18,0 C 99 % 2 lf 1012,4 hPa 0,0 l/m 0,00 h 0,07 h 190 W/m 9,2 km/h (2 Bft) 98,93 %
18.08.2017 11:00 18,5 C 19,2 C 18,6 C 99 % 2 lf 1012,0 hPa 0,0 l/m 0,00 h 0,23 h 192 W/m 5,8 km/h (2 Bft) 94,52 %
18.08.2017 12:00 19,2 C 19,5 C 18,5 C 97 % 1 lf 1011,6 hPa 0,0 l/m 0,00 h 0,90 h 193 W/m 8,6 km/h (2 Bft) 96,12 %
18.08.2017 13:00 19,9 C 21,5 C 20,0 C 94 % 0 lf 1011,1 hPa 0,0 l/m 0,03 h 0,23 h 334 W/m 13,9 km/h (3 Bft) 98,22 %
18.08.2017 14:00 20,5 C 21,6 C 20,3 C 90 % 0 lf 1010,9 hPa 0,0 l/m 0,00 h 0,00 h 217 W/m 11,5 km/h (2 Bft) 95,88 %
18.08.2017 15:00 20,5 C 21,3 C 20,7 C 87 % 0 lf 1010,7 hPa 0,0 l/m 0,00 h 0,00 h 165 W/m 17,3 km/h (3 Bft) 95,24 %
18.08.2017 16:00 19,7 C 19,4 C 18,7 C 84 % 0 lf 1010,8 hPa 0,0 l/m 0,00 h 0,03 h 93 W/m 19,4 km/h (3 Bft) 98,52 %
18.08.2017 17:00 18,9 C 19,3 C 18,7 C 85 % 0 lf 1010,9 hPa 0,0 l/m 0,00 h 0,00 h 138 W/m 20,1 km/h (4 Bft) 95,74 %
18.08.2017 18:00 18,8 C 19,4 C 18,6 C 84 % 0 lf 1010,8 hPa 0,0 l/m 0,60 h 0,00 h 163 W/m 19,6 km/h (3 Bft) 95,12 %
18.08.2017 19:00 18,8 C 18,8 C 18,0 C 85 % 0 lf 1010,8 hPa 0,0 l/m 0,40 h 0,00 h 88 W/m 13,8 km/h (3 Bft) 98,37 %
18.08.2017 20:00 18,5 C 18,0 C 16,9 C 86 % 0 lf 1010,8 hPa 0,0 l/m 0,00 h 0,00 h 8 W/m 14,0 km/h (3 Bft) 96,80 %
18.08.2017 21:00 17,7 C 15,9 C 15,1 C 89 % 12 lf 1012,1 hPa 1,2 l/m 0,00 h 0,67 h 0 W/m 15,5 km/h (3 Bft) 95,15 %
18.08.2017 22:00 16,1 C 14,4 C 13,6 C 92 % 15 lf 1012,5 hPa 0,0 l/m 0,00 h 0,00 h 4 W/m 12,5 km/h (3 Bft) 97,02 %
18.08.2017 23:00 14,5 C 13,2 C 12,4 C 93 % 15 lf 1012,7 hPa 0,0 l/m 0,00 h 0,00 h 5 W/m 15,2 km/h (3 Bft) 96,82 %
19.08.2017 00:00 13,8 C 12,8 C 11,9 C 94 % 15 lf 1013,2 hPa 0,0 l/m 0,00 h 0,00 h 5 W/m 12,5 km/h (3 Bft) 93,34 %
19.08.2017 01:00 13,3 C 12,2 C 11,5 C 94 % 15 lf 1013,5 hPa 0,0 l/m 0,00 h 0,00 h 4 W/m 11,3 km/h (2 Bft) 95,16 %
19.08.2017 02:00 12,9 C 12,3 C 11,1 C 94 % 11 lf 1013,9 hPa 0,0 l/m 0,00 h 0,00 h 4 W/m 13,7 km/h (3 Bft) 96,24 %
19.08.2017 03:00 12,6 C 12,1 C 10,6 C 94 % 2 lf 1014,0 hPa 0,0 l/m 0,00 h 0,00 h 5 W/m 13,7 km/h (3 Bft) 97,00 %
19.08.2017 04:00 12,4 C 12,1 C 10,6 C 94 % 2 lf 1013,9 hPa 0,2 l/m 0,00 h 0,00 h 5 W/m 17,4 km/h (3 Bft) 98,33 %
19.08.2017 05:00 12,4 C 12,2 C 10,6 C 94 % 1 lf 1013,9 hPa 0,0 l/m 0,00 h 0,00 h 5 W/m 17,0 km/h (3 Bft) 92,40 %
19.08.2017 06:00 12,2 C 12,2 C 10,6 C 93 % 1 lf 1014,2 hPa 0,0 l/m 0,10 h 0,00 h 13 W/m 18,9 km/h (3 Bft) 98,63 %
19.08.2017 07:00 12,4 C 12,6 C 10,8 C 93 % 1 lf 1014,5 hPa 0,0 l/m 0,97 h 0,00 h 105 W/m 18,8 km/h (3 Bft) 96,87 %
19.08.2017 08:00 13,6 C 14,8 C 12,5 C 90 % 0 lf 1014,7 hPa 0,0 l/m 0,73 h 0,00 h 263 W/m 25,0 km/h (4 Bft) 96,08 %
19.08.2017 09:00 14,7 C 15,8 C 13,8 C 87 % 4 lf 1015,0 hPa 0,0 l/m 0,23 h 0,10 h 187 W/m 26,4 km/h (4 Bft) 95,73 %
19.08.2017 10:00 15,4 C 18,3 C 16,9 C 87 % 0 lf 1015,4 hPa 0,0 l/m 0,53 h 0,03 h 298 W/m 29,9 km/h (5 Bft) 97,79 %
19.08.2017 11:00 16,8 C 21,7 C 19,7 C 83 % 0 lf 1015,6 hPa 0,0 l/m 0,60 h 0,00 h 479 W/m 26,8 km/h (4 Bft) 94,78 %
19.08.2017 12:00 18,6 C 23,4 C 21,0 C 75 % 0 lf 1015,7 hPa 0,0 l/m 0,57 h 0,00 h 464 W/m 29,7 km/h (5 Bft) 97,32 %
19.08.2017 13:00 19,5 C 24,2 C 21,5 C 71 % 0 lf 1015,8 hPa 0,0 l/m 0,63 h 0,00 h 554 W/m 29,7 km/h (5 Bft) 96,36 %
19.08.2017 14:00 19,7 C 22,3 C 21,3 C 69 % 0 lf 1016,3 hPa 0,0 l/m 0,27 h 0,07 h 355 W/m 26,1 km/h (4 Bft) 97,09 %
19.08.2017 15:00 20,1 C 24,0 C 23,3 C 69 % 0 lf 1016,7 hPa 0,0 l/m 0,73 h 0,00 h 537 W/m 28,5 km/h (4 Bft) 94,95 %
19.08.2017 16:00 18,8 C 18,4 C 17,5 C 75 % 6 lf 1017,1 hPa 0,2 l/m 0,13 h 0,33 h 191 W/m 22,9 km/h (4 Bft) 96,87 %
19.08.2017 17:00 18,0 C 18,8 C 17,4 C 82 % 0 lf 1017,3 hPa 0,0 l/m 0,13 h 0,00 h 205 W/m 16,2 km/h (3 Bft) 97,72 %
19.08.2017 18:00 17,5 C 17,5 C 16,9 C 80 % 0 lf 1017,5 hPa 0,0 l/m 0,03 h 0,07 h 93 W/m 15,2 km/h (3 Bft) 93,88 %
19.08.2017 19:00 16,9 C 16,8 C 16,0 C 81 % 0 lf 1017,6 hPa 0,0 l/m 0,10 h 0,00 h 67 W/m 12,8 km/h (3 Bft) 97,65 %
19.08.2017 20:00 16,4 C 15,6 C 14,5 C 84 % 0 lf 1018,1 hPa 0,0 l/m 0,40 h 0,00 h 26 W/m 11,1 km/h (2 Bft) 96,80 %
19.08.2017 21:00 15,5 C 14,7 C 13,7 C 87 % 0 lf 1018,6 hPa 0,0 l/m 0,00 h 0,00 h 0 W/m 8,8 km/h (2 Bft) 95,87 %
19.08.2017 22:00 15,0 C 14,2 C 12,9 C 89 % 1 lf 1018,9 hPa 0,0 l/m 0,00 h 0,00 h 0 W/m 8,6 km/h (2 Bft) 95,94 %
19.08.2017 23:00 14,6 C 14,2 C 13,2 C 91 % 1 lf 1019,0 hPa 0,0 l/m 0,00 h 0,00 h 0 W/m 11,1 km/h (2 Bft) 96,58 %
20.08.2017 00:00 14,3 C 13,5 C 12,4 C 90 % 1 lf 1019,1 hPa 0,0 l/m 0,00 h 0,00 h 0 W/m 10,1 km/h (2 Bft) 95,57 %
20.08.2017 01:00 14,1 C 13,8 C 12,6 C 90 % 0 lf 1019,1 hPa 0,0 l/m 0,00 h 0,00 h 0 W/m 14,2 km/h (3 Bft) 97,93 %
20.08.2017 02:00 13,7 C 13,2 C 12,2 C 88 % 0 lf 1019,2 hPa 0,0 l/m 0,00 h 0,00 h 0 W/m 14,6 km/h (3 Bft) 94,16 %
20.08.2017 03:00 13,6 C 13,3 C 12,5 C 89 % 0 lf 1019,3 hPa 0,0 l/m 0,00 h 0,00 h 0 W/m 14,5 km/h (3 Bft) 92,39 %
20.08.2017 04:00 13,3 C 12,3 C 11,2 C 89 % 1 lf 1019,6 hPa 0,0 l/m 0,00 h 0,00 h 0 W/m 12,6 km/h (3 Bft) 94,66 %
20.08.2017 05:00 12,5 C 11,8 C 10,7 C 92 % 1 lf 1019,9 hPa 0,0 l/m 0,00 h 0,00 h 0 W/m 13,3 km/h (3 Bft) 97,95 %
20.08.2017 06:00 12,1 C 11,7 C 10,6 C 94 % 1 lf 1020,2 hPa 0,0 l/m 0,00 h 0,00 h 13 W/m 14,0 km/h (3 Bft) 95,33 %
20.08.2017 07:00 12,1 C 12,2 C 11,1 C 95 % 1 lf 1020,6 hPa 0,0 l/m 0,00 h 0,00 h 54 W/m 13,5 km/h (3 Bft) 97,71 %
20.08.2017 08:00 13,0 C 14,4 C 13,3 C 95 % 0 lf 1021,1 hPa 0,0 l/m 0,53 h 0,00 h 158 W/m 16,8 km/h (3 Bft) 96,54 %
20.08.2017 09:00 14,5 C 17,7 C 15,6 C 91 % 0 lf 1021,6 hPa 0,0 l/m 1,00 h 0,00 h 277 W/m 17,9 km/h (3 Bft) 96,14 %
20.08.2017 10:00 16,4 C 21,2 C 18,9 C 85 % 0 lf 1022,0 hPa 0,0 l/m 1,00 h 0,00 h 404 W/m 17,4 km/h (3 Bft) 97,17 %
20.08.2017 11:00 17,8 C 23,5 C 21,5 C 80 % 0 lf 1022,2 hPa 0,0 l/m 1,00 h 0,00 h 543 W/m 21,0 km/h (4 Bft) 94,72 %
20.08.2017 12:00 19,2 C 24,6 C 22,7 C 75 % 0 lf 1022,2 hPa 0,0 l/m 0,83 h 0,00 h 582 W/m 23,4 km/h (4 Bft) 96,55 %
20.08.2017 13:00 19,6 C 23,1 C 21,6 C 70 % 0 lf 1022,2 hPa 0,0 l/m 0,47 h 0,00 h 472 W/m 22,8 km/h (4 Bft) 97,79 %
20.08.2017 14:00 20,0 C 22,9 C 20,7 C 67 % 0 lf 1022,5 hPa 0,0 l/m 0,43 h 0,00 h 444 W/m 25,7 km/h (4 Bft) 95,31 %
20.08.2017 15:00 19,6 C 22,0 C 21,5 C 68 % 0 lf 1022,5 hPa 0,0 l/m 0,40 h 0,00 h 351 W/m 20,7 km/h (4 Bft) 97,01 %
20.08.2017 16:00 19,4 C 21,0 C 20,4 C 67 % 0 lf 1022,6 hPa 0,0 l/m 0,57 h 0,00 h 335 W/m 25,0 km/h (4 Bft) 94,87 %
20.08.2017 17:00 19,5 C 20,1 C 19,1 C 67 % 0 lf 1022,6 hPa 0,0 l/m 0,57 h 0,00 h 250 W/m 20,8 km/h (4 Bft) 98,50 %
20.08.2017 18:00 19,1 C 19,7 C 18,4 C 68 % 0 lf 1022,5 hPa 0,0 l/m 0,83 h 0,00 h 221 W/m 20,7 km/h (4 Bft) 95,33 %
20.08.2017 19:00 18,5 C 18,3 C 17,1 C 69 % 0 lf 1022,3 hPa 0,0 l/m 0,73 h 0,00 h 98 W/m 17,0 km/h (3 Bft) 95,44 %
20.08.2017 20:00 17,4 C 15,8 C 14,3 C 72 % 0 lf 1022,7 hPa 0,0 l/m 0,17 h 0,00 h 23 W/m 8,6 km/h (2 Bft) 97,92 %
20.08.2017 21:00 16,0 C 13,9 C 12,7 C 76 % 0 lf 1023,2 hPa 0,0 l/m 0,00 h 0,00 h 0 W/m 2,1 km/h (1 Bft) 97,09 %
20.08.2017 22:00 14,9 C 13,2 C 12,1 C 82 % 0 lf 1023,4 hPa 0,0 l/m 0,00 h 0,00 h 0 W/m 0,0 km/h (0 Bft) 94,80 %
20.08.2017 23:00 14,2 C 13,3 C 12,3 C 86 % 0 lf 1023,4 hPa 0,0 l/m 0,00 h 0,00 h 0 W/m 0,1 km/h (0 Bft) 96,87 %
Min-Datum _ 14.08.17 14.08.17 14.08.17 14.08.17 14.08.17 18.08.17 - - - - 14.08.17 19.08.17
_ Min-Zeit 06:38 05:28 05:32 14:16 08:58 15:52 - - - - 00:00 00:02
Minimum _ 11,3 C 10,0 C 9,4 C 56 % 0 lf 1010,4 hPa - - - - 0,0 km/h (0 Bft) 11,76 %
Max-Datum _ 14.08.17 14.08.17 14.08.17 18.08.17 14.08.17 20.08.17 18.08.17 16.08.17 15.08.17 14.08.17 15.08.17 14.08.17
_ Max-Zeit 15:50 12:56 15:46 09:46 03:00 23:04 06:08 12:10 12:10 13:36 19:14 00:02
Maximum _ 26,6 C 36,1 C 33,9 C 99 % 15 lf 1023,6 hPa 5,8 l/m 0,07 h 0,07 h 1084 W/m 41,8 km/h
W-SW (6 Bft)
100,00 %
Durchschnitt _ 18,4 C 18,9 C 17,5 C 85 % 4 lf 1016,6 hPa #10,0 l/m #40:28 h #7:54 h 187 W/m 11,5 km/h (2 Bft) 96,36 %
© 2017 W. Hausmann